createdAt,value
2018-12-30T00:00:05.224Z,4.31
2018-12-30T00:01:05.594Z,4.31
2018-12-30T00:02:05.302Z,4.31
2018-12-30T00:03:06.027Z,4.31
2018-12-30T00:04:05.591Z,4.31
2018-12-30T00:05:05.471Z,4.31
2018-12-30T00:06:05.303Z,4.31
2018-12-30T00:07:05.773Z,4.31
2018-12-30T00:08:05.137Z,4.31
2018-12-30T00:09:05.731Z,4.31
2018-12-30T00:10:05.301Z,4.31
2018-12-30T00:11:05.915Z,4.31
2018-12-30T00:12:05.386Z,4.31
2018-12-30T00:13:05.445Z,4.31
2018-12-30T00:14:05.160Z,4.31
2018-12-30T00:15:05.199Z,4.31
2018-12-30T00:16:05.469Z,4.31
2018-12-30T00:17:06.021Z,4.31
2018-12-30T00:18:05.926Z,4.38
2018-12-30T00:19:05.920Z,4.38
2018-12-30T00:20:05.200Z,4.31
2018-12-30T00:21:09.035Z,4.38
2018-12-30T00:22:05.622Z,4.38
2018-12-30T00:23:05.415Z,4.38
2018-12-30T00:24:05.836Z,4.38
2018-12-30T00:25:05.160Z,4.38
2018-12-30T00:26:05.304Z,4.38
2018-12-30T00:27:05.741Z,4.38
2018-12-30T00:28:05.757Z,4.38
2018-12-30T00:29:06.086Z,4.38
2018-12-30T00:30:05.480Z,4.38
2018-12-30T00:31:05.324Z,4.38
2018-12-30T00:32:06.039Z,4.38
2018-12-30T00:33:05.876Z,4.38
2018-12-30T00:34:05.240Z,4.38
2018-12-30T00:35:05.192Z,4.38
2018-12-30T00:36:06.016Z,4.38
2018-12-30T00:37:06.884Z,4.38
2018-12-30T00:38:05.298Z,4.38
2018-12-30T00:39:05.619Z,4.38
2018-12-30T00:40:05.221Z,4.38
2018-12-30T00:41:06.092Z,4.44
2018-12-30T00:42:06.030Z,4.38
2018-12-30T00:43:05.383Z,4.38
2018-12-30T00:44:05.450Z,4.38
2018-12-30T00:45:05.689Z,4.38
2018-12-30T00:46:05.883Z,4.38
2018-12-30T00:47:05.951Z,4.38
2018-12-30T00:48:06.016Z,4.38
2018-12-30T00:49:05.760Z,4.44
2018-12-30T00:50:05.839Z,4.44
2018-12-30T00:51:05.941Z,4.38
2018-12-30T00:52:05.059Z,4.38
2018-12-30T00:53:05.706Z,4.38
2018-12-30T00:54:06.007Z,4.38
2018-12-30T00:55:05.278Z,4.44
2018-12-30T00:56:05.622Z,4.44
2018-12-30T00:57:05.285Z,4.44
2018-12-30T00:58:05.308Z,4.44
2018-12-30T00:59:05.302Z,4.44
2018-12-30T01:00:05.668Z,4.44
2018-12-30T01:01:05.702Z,4.44
2018-12-30T01:02:05.848Z,4.44
2018-12-30T01:03:05.088Z,4.44
2018-12-30T01:04:05.317Z,4.44
2018-12-30T01:05:05.287Z,4.44
2018-12-30T01:06:05.945Z,4.50
2018-12-30T01:07:05.461Z,4.50
2018-12-30T01:08:05.170Z,4.50
2018-12-30T01:09:05.125Z,4.50
2018-12-30T01:10:06.765Z,4.50
2018-12-30T01:11:05.945Z,4.50
2018-12-30T01:12:05.385Z,4.50
2018-12-30T01:13:06.021Z,4.50
2018-12-30T01:14:05.156Z,4.56
2018-12-30T01:15:05.144Z,4.56
2018-12-30T01:16:05.288Z,4.56
2018-12-30T01:17:05.604Z,4.56
2018-12-30T01:18:05.629Z,4.56
2018-12-30T01:19:05.623Z,4.56
2018-12-30T01:20:05.877Z,4.56
2018-12-30T01:21:06.747Z,4.56
2018-12-30T01:22:05.237Z,4.56
2018-12-30T01:23:05.709Z,4.62
2018-12-30T01:24:05.227Z,4.56
2018-12-30T01:25:05.194Z,4.56
2018-12-30T01:26:05.305Z,4.56
2018-12-30T01:27:06.097Z,4.56
2018-12-30T01:28:05.441Z,4.56
2018-12-30T01:29:05.564Z,4.62
2018-12-30T01:30:05.434Z,4.56
2018-12-30T01:31:05.700Z,4.62
2018-12-30T01:32:05.788Z,4.56
2018-12-30T01:33:05.443Z,4.62
2018-12-30T01:34:05.438Z,4.62
2018-12-30T01:35:05.692Z,4.56
2018-12-30T01:36:05.965Z,4.62
2018-12-30T01:37:05.845Z,4.62
2018-12-30T01:38:06.015Z,4.62
2018-12-30T01:39:05.140Z,4.62
2018-12-30T01:40:05.482Z,4.62
2018-12-30T01:41:05.812Z,4.62
2018-12-30T01:42:05.135Z,4.62
2018-12-30T01:43:05.756Z,4.69
2018-12-30T01:44:05.933Z,4.69
2018-12-30T01:45:05.356Z,4.69
2018-12-30T01:46:05.853Z,4.69
2018-12-30T01:47:05.764Z,4.69
2018-12-30T01:48:05.771Z,4.69
2018-12-30T01:49:05.110Z,4.69
2018-12-30T01:50:05.629Z,4.69
2018-12-30T01:51:05.585Z,4.62
2018-12-30T01:52:05.104Z,4.69
2018-12-30T01:53:05.301Z,4.69
2018-12-30T01:54:05.639Z,4.69
2018-12-30T01:55:05.703Z,4.69
2018-12-30T01:56:05.969Z,4.69
2018-12-30T01:57:06.012Z,4.69
2018-12-30T01:58:05.708Z,4.69
2018-12-30T01:59:05.103Z,4.69
2018-12-30T02:00:05.783Z,4.75
2018-12-30T02:01:05.788Z,4.75
2018-12-30T02:02:05.311Z,4.75
2018-12-30T02:03:05.558Z,4.75
2018-12-30T02:04:05.128Z,4.75
2018-12-30T02:05:05.274Z,4.75
2018-12-30T02:06:05.961Z,4.75
2018-12-30T02:07:05.194Z,4.75
2018-12-30T02:08:05.531Z,4.75
2018-12-30T02:09:05.104Z,4.75
2018-12-30T02:10:05.625Z,4.75
2018-12-30T02:11:06.099Z,4.81
2018-12-30T02:12:05.138Z,4.81
2018-12-30T02:13:05.295Z,4.81
2018-12-30T02:14:05.533Z,4.81
2018-12-30T02:15:06.006Z,4.81
2018-12-30T02:16:05.437Z,4.81
2018-12-30T02:17:05.748Z,4.81
2018-12-30T02:18:05.768Z,4.81
2018-12-30T02:19:05.278Z,4.81
2018-12-30T02:20:05.357Z,4.88
2018-12-30T02:21:05.775Z,4.88
2018-12-30T02:22:06.024Z,4.88
2018-12-30T02:23:05.432Z,4.88
2018-12-30T02:24:05.848Z,4.88
2018-12-30T02:25:05.521Z,4.88
2018-12-30T02:26:05.144Z,4.88
2018-12-30T02:27:05.139Z,4.88
2018-12-30T02:28:05.350Z,4.94
2018-12-30T02:29:05.305Z,4.94
2018-12-30T02:30:05.673Z,4.94
2018-12-30T02:31:05.921Z,5.00
2018-12-30T02:32:05.541Z,5.00
2018-12-30T02:33:05.206Z,5.00
2018-12-30T02:34:05.248Z,5.00
2018-12-30T02:35:05.919Z,5.00
2018-12-30T02:36:05.881Z,5.06
2018-12-30T02:37:05.369Z,5.06
2018-12-30T02:38:05.421Z,5.06
2018-12-30T02:39:05.200Z,5.06
2018-12-30T02:40:05.639Z,5.06
2018-12-30T02:41:05.770Z,5.06
2018-12-30T02:42:05.945Z,5.06
2018-12-30T02:43:05.277Z,5.06
2018-12-30T02:44:05.221Z,5.06
2018-12-30T02:45:05.683Z,5.06
2018-12-30T02:46:05.399Z,5.06
2018-12-30T02:47:05.490Z,5.06
2018-12-30T02:48:05.172Z,5.12
2018-12-30T02:49:05.285Z,5.12
2018-12-30T02:50:05.318Z,5.12
2018-12-30T02:51:05.360Z,5.19
2018-12-30T02:52:06.033Z,5.19
2018-12-30T02:53:05.853Z,5.19
2018-12-30T02:54:05.388Z,5.25
2018-12-30T02:55:05.927Z,5.25
2018-12-30T02:56:05.059Z,5.25
2018-12-30T02:57:06.008Z,5.25
2018-12-30T02:58:06.107Z,5.25
2018-12-30T02:59:05.619Z,5.31
2018-12-30T03:00:05.618Z,5.31
2018-12-30T03:01:05.211Z,5.31
2018-12-30T03:02:05.306Z,5.31
2018-12-30T03:03:05.860Z,5.31
2018-12-30T03:04:05.330Z,5.31
2018-12-30T03:05:05.228Z,5.31
2018-12-30T03:06:05.094Z,5.31
2018-12-30T03:07:05.044Z,5.31
2018-12-30T03:08:05.789Z,5.31
2018-12-30T03:09:05.230Z,5.38
2018-12-30T03:10:05.571Z,5.38
2018-12-30T03:11:05.491Z,5.38
2018-12-30T03:12:05.711Z,5.38
2018-12-30T03:13:05.851Z,5.38
2018-12-30T03:14:05.782Z,5.38
2018-12-30T03:15:07.469Z,5.38
2018-12-30T03:16:06.028Z,5.44
2018-12-30T03:17:05.513Z,5.44
2018-12-30T03:18:08.208Z,5.44
2018-12-30T03:19:05.783Z,5.44
2018-12-30T03:20:05.872Z,5.44
2018-12-30T03:21:05.940Z,5.44
2018-12-30T03:22:06.033Z,5.44
2018-12-30T03:23:05.157Z,5.44
2018-12-30T03:24:05.707Z,5.44
2018-12-30T03:25:05.296Z,5.50
2018-12-30T03:26:05.703Z,5.50
2018-12-30T03:27:05.203Z,5.50
2018-12-30T03:28:07.144Z,5.50
2018-12-30T03:29:05.643Z,5.50
2018-12-30T03:30:05.329Z,5.50
2018-12-30T03:31:05.540Z,5.50
2018-12-30T03:32:05.886Z,5.56
2018-12-30T03:33:05.799Z,5.56
2018-12-30T03:34:05.071Z,5.56
2018-12-30T03:35:05.279Z,5.56
2018-12-30T03:36:05.556Z,5.56
2018-12-30T03:37:06.018Z,5.62
2018-12-30T03:38:05.731Z,5.62
2018-12-30T03:39:05.839Z,5.62
2018-12-30T03:40:05.276Z,5.62
2018-12-30T03:41:05.218Z,5.62
2018-12-30T03:42:05.770Z,5.62
2018-12-30T03:43:06.126Z,5.62
2018-12-30T03:44:05.071Z,5.62
2018-12-30T03:45:05.629Z,5.62
2018-12-30T03:46:05.637Z,5.69
2018-12-30T03:47:05.326Z,5.69
2018-12-30T03:48:05.959Z,5.69
2018-12-30T03:49:05.937Z,5.69
2018-12-30T03:50:05.393Z,5.69
2018-12-30T03:51:05.940Z,5.69
2018-12-30T03:52:08.462Z,5.75
2018-12-30T03:53:05.092Z,5.75
2018-12-30T03:54:05.221Z,5.75
2018-12-30T03:55:05.631Z,5.75
2018-12-30T03:56:05.658Z,5.75
2018-12-30T03:57:05.615Z,5.81
2018-12-30T03:58:05.265Z,5.81
2018-12-30T03:59:05.358Z,5.81
2018-12-30T04:00:05.318Z,5.81
2018-12-30T04:01:05.797Z,5.81
2018-12-30T04:02:05.802Z,5.81
2018-12-30T04:03:05.411Z,5.88
2018-12-30T04:04:05.826Z,5.88
2018-12-30T04:05:05.825Z,5.88
2018-12-30T04:06:05.902Z,5.88
2018-12-30T04:07:05.947Z,5.88
2018-12-30T04:08:05.513Z,5.88
2018-12-30T04:09:05.730Z,5.88
2018-12-30T04:10:05.913Z,5.88
2018-12-30T04:11:05.203Z,5.88
2018-12-30T04:12:05.758Z,5.88
2018-12-30T04:13:05.818Z,5.88
2018-12-30T04:14:05.726Z,5.88
2018-12-30T04:15:05.253Z,5.88
2018-12-30T04:16:05.735Z,5.94
2018-12-30T04:17:06.178Z,5.94
2018-12-30T04:18:05.270Z,5.94
2018-12-30T04:19:05.214Z,5.94
2018-12-30T04:20:05.814Z,5.94
2018-12-30T04:21:05.389Z,5.94
2018-12-30T04:22:05.409Z,6.00
2018-12-30T04:23:05.575Z,5.94
2018-12-30T04:24:05.837Z,6.00
2018-12-30T04:25:05.475Z,6.00
2018-12-30T04:26:05.661Z,6.00
2018-12-30T04:27:05.577Z,6.00
2018-12-30T04:28:05.904Z,6.00
2018-12-30T04:29:06.049Z,6.00
2018-12-30T04:30:06.060Z,6.00
2018-12-30T04:31:05.081Z,6.06
2018-12-30T04:32:05.197Z,6.06
2018-12-30T04:33:05.246Z,6.06
2018-12-30T04:34:05.721Z,6.06
2018-12-30T04:35:05.085Z,6.06
2018-12-30T04:36:05.179Z,6.06
2018-12-30T04:37:05.088Z,6.12
2018-12-30T04:38:05.177Z,6.12
2018-12-30T04:39:05.829Z,6.12
2018-12-30T04:40:05.819Z,6.12
2018-12-30T04:41:05.347Z,6.12
2018-12-30T04:42:05.383Z,6.12
2018-12-30T04:43:05.496Z,6.12
2018-12-30T04:44:05.395Z,6.12
2018-12-30T04:45:05.629Z,6.12
2018-12-30T04:46:06.149Z,6.06
2018-12-30T04:47:05.403Z,6.12
2018-12-30T04:48:06.074Z,6.12
2018-12-30T04:49:05.988Z,6.12
2018-12-30T04:50:05.337Z,6.12
2018-12-30T04:51:06.044Z,6.12
2018-12-30T04:52:05.505Z,6.12
2018-12-30T04:53:05.390Z,6.12
2018-12-30T04:54:05.980Z,6.12
2018-12-30T04:55:06.039Z,6.12
2018-12-30T04:56:05.179Z,6.12
2018-12-30T04:57:06.057Z,6.12
2018-12-30T04:58:05.277Z,6.12
2018-12-30T04:59:05.736Z,6.12
2018-12-30T05:00:05.747Z,6.12
2018-12-30T05:01:05.714Z,6.12
2018-12-30T05:02:05.577Z,6.12
2018-12-30T05:03:05.759Z,6.12
2018-12-30T05:04:05.916Z,6.12
2018-12-30T05:05:06.140Z,6.12
2018-12-30T05:06:05.256Z,6.12
2018-12-30T05:07:05.566Z,6.06
2018-12-30T05:08:05.787Z,6.12
2018-12-30T05:09:06.021Z,6.06
2018-12-30T05:10:05.159Z,6.06
2018-12-30T05:11:05.652Z,6.06
2018-12-30T05:12:05.635Z,6.12
2018-12-30T05:13:06.092Z,6.12
2018-12-30T05:14:05.143Z,6.12
2018-12-30T05:15:05.712Z,6.06
2018-12-30T05:16:05.962Z,6.06
2018-12-30T05:17:06.001Z,6.06
2018-12-30T05:18:05.709Z,6.06
2018-12-30T05:19:05.127Z,6.06
2018-12-30T05:20:05.703Z,6.06
2018-12-30T05:21:05.835Z,6.06
2018-12-30T05:22:05.383Z,6.06
2018-12-30T05:23:05.774Z,6.06
2018-12-30T05:24:05.874Z,6.06
2018-12-30T05:25:06.318Z,6.06
2018-12-30T05:26:05.780Z,6.06
2018-12-30T05:27:05.824Z,6.06
2018-12-30T05:28:05.215Z,6.06
2018-12-30T05:29:05.681Z,6.06
2018-12-30T05:30:05.234Z,6.06
2018-12-30T05:31:05.186Z,6.06
2018-12-30T05:32:05.130Z,6.06
2018-12-30T05:33:05.285Z,6.06
2018-12-30T05:34:05.669Z,6.06
2018-12-30T05:35:06.006Z,6.06
2018-12-30T05:36:06.010Z,6.06
2018-12-30T05:37:05.196Z,6.00
2018-12-30T05:38:05.188Z,6.00
2018-12-30T05:39:05.489Z,6.00
2018-12-30T05:40:05.447Z,6.06
2018-12-30T05:41:07.079Z,6.00
2018-12-30T05:42:05.425Z,6.00
2018-12-30T05:43:05.539Z,6.06
2018-12-30T05:44:05.615Z,6.00
2018-12-30T05:45:05.768Z,6.06
2018-12-30T05:46:05.357Z,6.06
2018-12-30T05:47:06.770Z,6.06
2018-12-30T05:48:05.871Z,6.06
2018-12-30T05:49:05.529Z,6.06
2018-12-30T05:50:06.118Z,6.06
2018-12-30T05:51:05.038Z,6.06
2018-12-30T05:52:05.233Z,6.06
2018-12-30T05:53:05.213Z,6.06
2018-12-30T05:54:05.377Z,6.00
2018-12-30T05:55:05.926Z,6.06
2018-12-30T05:56:05.380Z,6.06
2018-12-30T05:57:05.370Z,6.00
2018-12-30T05:58:05.507Z,6.00
2018-12-30T05:59:05.747Z,6.00
2018-12-30T06:00:05.243Z,6.00
2018-12-30T06:01:05.592Z,6.00
2018-12-30T06:02:05.388Z,6.00
2018-12-30T06:03:05.698Z,6.00
2018-12-30T06:04:05.705Z,6.00
2018-12-30T06:05:05.440Z,6.00
2018-12-30T06:06:05.457Z,6.00
2018-12-30T06:07:05.529Z,6.00
2018-12-30T06:08:05.709Z,5.94
2018-12-30T06:09:05.682Z,5.94
2018-12-30T06:10:05.299Z,5.94
2018-12-30T06:11:05.588Z,5.94
2018-12-30T06:12:05.396Z,6.00
2018-12-30T06:13:05.362Z,5.94
2018-12-30T06:14:05.282Z,5.94
2018-12-30T06:15:05.748Z,5.94
2018-12-30T06:16:05.227Z,5.94
2018-12-30T06:17:05.862Z,5.94
2018-12-30T06:18:05.775Z,5.94
2018-12-30T06:19:05.860Z,5.94
2018-12-30T06:20:05.153Z,5.94
2018-12-30T06:21:05.064Z,5.94
2018-12-30T06:22:05.145Z,5.94
2018-12-30T06:23:05.630Z,5.88
2018-12-30T06:24:05.856Z,5.88
2018-12-30T06:25:05.998Z,5.88
2018-12-30T06:26:05.950Z,5.88
2018-12-30T06:27:06.979Z,5.88
2018-12-30T06:28:05.223Z,5.88
2018-12-30T06:29:05.232Z,5.88
2018-12-30T06:30:05.689Z,5.88
2018-12-30T06:31:05.855Z,5.88
2018-12-30T06:32:05.062Z,5.88
2018-12-30T06:33:05.297Z,5.81
2018-12-30T06:34:05.944Z,5.81
2018-12-30T06:35:05.929Z,5.88
2018-12-30T06:36:05.115Z,5.88
2018-12-30T06:37:05.698Z,5.88
2018-12-30T06:38:05.274Z,5.88
2018-12-30T06:39:05.712Z,5.88
2018-12-30T06:40:11.204Z,5.88
2018-12-30T06:41:05.950Z,5.88
2018-12-30T06:42:06.090Z,5.81
2018-12-30T06:43:06.019Z,5.81
2018-12-30T06:44:05.471Z,5.88
2018-12-30T06:45:05.694Z,5.81
2018-12-30T06:46:05.127Z,5.81
2018-12-30T06:47:05.396Z,5.81
2018-12-30T06:48:05.638Z,5.75
2018-12-30T06:49:05.600Z,5.75
2018-12-30T06:50:05.216Z,5.75
2018-12-30T06:51:05.146Z,5.75
2018-12-30T06:52:05.290Z,5.75
2018-12-30T06:53:05.401Z,5.75
2018-12-30T06:54:05.870Z,5.75
2018-12-30T06:55:05.784Z,5.75
2018-12-30T06:56:05.281Z,5.75
2018-12-30T06:57:05.695Z,5.69
2018-12-30T06:58:05.205Z,5.69
2018-12-30T06:59:05.700Z,5.69
2018-12-30T07:00:05.829Z,5.69
2018-12-30T07:01:05.943Z,5.69
2018-12-30T07:02:05.026Z,5.69
2018-12-30T07:03:05.539Z,5.69
2018-12-30T07:04:05.671Z,5.69
2018-12-30T07:05:05.847Z,5.69
2018-12-30T07:06:05.111Z,5.69
2018-12-30T07:07:05.206Z,5.69
2018-12-30T07:08:05.520Z,5.62
2018-12-30T07:09:05.622Z,5.62
2018-12-30T07:10:05.687Z,5.62
2018-12-30T07:11:05.856Z,5.62
2018-12-30T07:12:06.009Z,5.62
2018-12-30T07:13:05.059Z,5.62
2018-12-30T07:14:05.113Z,5.62
2018-12-30T07:15:05.301Z,5.62
2018-12-30T07:16:05.447Z,5.62
2018-12-30T07:17:05.563Z,5.62
2018-12-30T07:18:05.524Z,5.62
2018-12-30T07:19:05.592Z,5.62
2018-12-30T07:20:05.917Z,5.56
2018-12-30T07:21:06.005Z,5.62
2018-12-30T07:22:05.035Z,5.62
2018-12-30T07:23:06.228Z,5.62
2018-12-30T07:24:05.675Z,5.62
2018-12-30T07:25:05.886Z,5.62
2018-12-30T07:26:05.934Z,5.62
2018-12-30T07:27:06.024Z,5.62
2018-12-30T07:28:05.677Z,5.62
2018-12-30T07:29:05.200Z,5.56
2018-12-30T07:30:05.608Z,5.56
2018-12-30T07:31:05.790Z,5.56
2018-12-30T07:32:05.772Z,5.62
2018-12-30T07:33:05.343Z,5.62
2018-12-30T07:34:05.111Z,5.62
2018-12-30T07:35:05.800Z,5.62
2018-12-30T07:36:05.186Z,5.62
2018-12-30T07:37:06.364Z,5.62
2018-12-30T07:38:05.903Z,5.56
2018-12-30T07:39:06.039Z,5.56
2018-12-30T07:40:05.698Z,5.56
2018-12-30T07:41:05.163Z,5.62
2018-12-30T07:42:05.308Z,5.62
2018-12-30T07:43:05.439Z,5.62
2018-12-30T07:44:05.527Z,5.62
2018-12-30T07:45:05.451Z,5.56
2018-12-30T07:46:05.640Z,5.56
2018-12-30T07:47:05.790Z,5.56
2018-12-30T07:48:05.123Z,5.56
2018-12-30T07:49:05.721Z,5.56
2018-12-30T07:50:05.302Z,5.56
2018-12-30T07:51:05.593Z,5.56
2018-12-30T07:52:05.754Z,5.62
2018-12-30T07:53:10.033Z,5.62
2018-12-30T07:54:05.752Z,5.62
2018-12-30T07:55:05.946Z,5.62
2018-12-30T07:56:05.836Z,5.56
2018-12-30T07:57:05.390Z,5.62
2018-12-30T07:58:05.149Z,5.62
2018-12-30T07:59:05.387Z,5.62
2018-12-30T08:00:05.836Z,5.62
2018-12-30T08:01:05.999Z,5.62
2018-12-30T08:02:05.326Z,5.62
2018-12-30T08:03:05.621Z,5.62
2018-12-30T08:04:05.878Z,5.56
2018-12-30T08:05:05.846Z,5.62
2018-12-30T08:06:05.120Z,5.62
2018-12-30T08:07:05.299Z,5.62
2018-12-30T08:08:05.702Z,5.62
2018-12-30T08:09:05.860Z,5.62
2018-12-30T08:10:05.621Z,5.69
2018-12-30T08:11:05.554Z,5.62
2018-12-30T08:12:05.594Z,5.62
2018-12-30T08:13:05.233Z,5.62
2018-12-30T08:14:05.518Z,5.62
2018-12-30T08:17:06.035Z,5.62
2018-12-30T08:18:06.116Z,5.69
2018-12-30T08:19:05.541Z,5.69
2018-12-30T08:20:05.711Z,5.69
2018-12-30T08:21:05.630Z,5.69
2018-12-30T08:22:05.805Z,5.69
2018-12-30T08:23:05.308Z,5.69
2018-12-30T08:24:05.729Z,5.69
2018-12-30T08:25:05.145Z,5.69
2018-12-30T08:26:05.544Z,5.69
2018-12-30T08:27:05.644Z,5.69
2018-12-30T08:28:05.790Z,5.69
2018-12-30T08:29:05.861Z,5.69
2018-12-30T08:30:05.481Z,5.75
2018-12-30T08:31:05.872Z,5.69
2018-12-30T08:32:05.152Z,5.69
2018-12-30T08:33:05.144Z,5.75
2018-12-30T08:34:05.872Z,5.75
2018-12-30T08:35:06.766Z,5.69
2018-12-30T08:36:06.017Z,5.75
2018-12-30T08:37:05.537Z,5.75
2018-12-30T08:38:05.102Z,5.75
2018-12-30T08:39:05.558Z,5.69
2018-12-30T08:40:05.940Z,5.75
2018-12-30T08:41:05.150Z,5.75
2018-12-30T08:42:05.219Z,5.75
2018-12-30T08:43:05.467Z,5.75
2018-12-30T08:44:05.719Z,5.75
2018-12-30T08:45:05.713Z,5.75
2018-12-30T08:46:06.195Z,5.75
2018-12-30T08:47:05.477Z,5.75
2018-12-30T08:48:05.810Z,5.75
2018-12-30T08:49:05.386Z,5.75
2018-12-30T08:50:05.714Z,5.81
2018-12-30T08:51:05.784Z,5.75
2018-12-30T08:52:05.397Z,5.75
2018-12-30T08:53:05.881Z,5.75
2018-12-30T08:54:05.801Z,5.75
2018-12-30T08:55:06.202Z,5.81
2018-12-30T08:56:05.630Z,5.81
2018-12-30T08:57:05.790Z,5.81
2018-12-30T08:58:05.410Z,5.81
2018-12-30T08:59:05.480Z,5.81
2018-12-30T09:00:05.629Z,5.81
2018-12-30T09:01:05.068Z,5.81
2018-12-30T09:03:05.733Z,5.88
2018-12-30T09:04:06.749Z,5.88
2018-12-30T09:05:05.493Z,5.88
2018-12-30T09:06:05.557Z,5.88
2018-12-30T09:07:05.638Z,5.88
2018-12-30T09:08:05.971Z,5.88
2018-12-30T09:09:05.961Z,5.88
2018-12-30T09:10:05.330Z,5.94
2018-12-30T09:11:05.416Z,5.88
2018-12-30T09:12:05.542Z,5.94
2018-12-30T09:13:05.712Z,5.88
2018-12-30T09:14:05.640Z,5.88
2018-12-30T09:15:05.877Z,5.94
2018-12-30T09:16:06.046Z,5.94
2018-12-30T09:17:05.507Z,5.94
2018-12-30T09:18:05.239Z,6.00
2018-12-30T09:19:05.341Z,5.94
2018-12-30T09:20:05.502Z,6.00
2018-12-30T09:21:05.466Z,6.00
2018-12-30T09:22:05.253Z,6.00
2018-12-30T09:23:05.368Z,6.06
2018-12-30T09:24:05.472Z,6.00
2018-12-30T09:25:05.553Z,6.00
2018-12-30T09:26:05.720Z,6.06
2018-12-30T09:27:06.029Z,6.06
2018-12-30T09:28:05.166Z,6.06
2018-12-30T09:29:05.553Z,6.06
2018-12-30T09:30:05.309Z,6.06
2018-12-30T09:31:05.786Z,6.06
2018-12-30T09:32:05.078Z,6.06
2018-12-30T09:33:05.356Z,6.06
2018-12-30T09:34:05.835Z,6.12
2018-12-30T09:35:05.424Z,6.12
2018-12-30T09:36:05.878Z,6.12
2018-12-30T09:37:05.978Z,6.12
2018-12-30T09:38:05.151Z,6.12
2018-12-30T09:39:05.645Z,6.12
2018-12-30T09:40:05.997Z,6.12
2018-12-30T09:41:05.058Z,6.12
2018-12-30T09:42:05.743Z,6.19
2018-12-30T09:43:05.819Z,6.19
2018-12-30T09:44:05.175Z,6.19
2018-12-30T09:45:05.232Z,6.19
2018-12-30T09:46:05.330Z,6.19
2018-12-30T09:47:05.494Z,6.19
2018-12-30T09:48:05.630Z,6.25
2018-12-30T09:49:05.718Z,6.25
2018-12-30T09:50:10.814Z,6.25
2018-12-30T09:52:05.293Z,6.25
2018-12-30T09:53:05.875Z,6.25
2018-12-30T09:54:05.873Z,6.31
2018-12-30T09:55:09.360Z,6.31
2018-12-30T09:56:10.393Z,6.31
2018-12-30T09:57:05.642Z,6.31
2018-12-30T09:58:05.924Z,6.31
2018-12-30T09:59:05.309Z,6.31
2018-12-30T10:00:05.645Z,6.31
2018-12-30T10:01:05.614Z,6.38
2018-12-30T10:02:06.210Z,6.38
2018-12-30T10:03:06.166Z,6.38
2018-12-30T10:04:05.651Z,6.38
2018-12-30T10:05:05.532Z,6.38
2018-12-30T10:06:05.815Z,6.38
2018-12-30T10:07:05.770Z,6.38
2018-12-30T10:08:05.311Z,6.38
2018-12-30T10:09:05.207Z,6.44
2018-12-30T10:10:05.294Z,6.44
2018-12-30T10:11:05.742Z,6.44
2018-12-30T10:12:05.760Z,6.44
2018-12-30T10:13:05.230Z,6.44
2018-12-30T10:14:05.796Z,6.44
2018-12-30T10:15:09.449Z,6.44
2018-12-30T10:16:05.560Z,6.44
2018-12-30T10:17:05.519Z,6.50
2018-12-30T10:18:05.526Z,6.50
2018-12-30T10:19:05.771Z,6.50
2018-12-30T10:20:07.387Z,6.50
2018-12-30T10:21:05.985Z,6.50
2018-12-30T10:22:05.321Z,6.50
2018-12-30T10:23:05.402Z,6.50
2018-12-30T10:24:05.527Z,6.50
2018-12-30T10:25:05.791Z,6.56
2018-12-30T10:26:05.156Z,6.56
2018-12-30T10:27:05.366Z,6.56
2018-12-30T10:28:05.942Z,6.56
2018-12-30T10:29:05.465Z,6.56
2018-12-30T10:31:05.475Z,6.56
2018-12-30T10:32:05.628Z,6.56
2018-12-30T10:33:05.164Z,6.56
2018-12-30T10:34:05.322Z,6.62
2018-12-30T10:35:05.371Z,6.62
2018-12-30T10:36:05.562Z,6.56
2018-12-30T10:37:05.528Z,6.62
2018-12-30T10:38:05.893Z,6.62
2018-12-30T10:39:05.933Z,6.62
2018-12-30T10:40:05.237Z,6.62
2018-12-30T10:41:06.157Z,6.62
2018-12-30T10:42:05.454Z,6.62
2018-12-30T10:43:05.555Z,6.69
2018-12-30T10:44:05.126Z,6.69
2018-12-30T10:45:05.234Z,6.69
2018-12-30T10:46:05.955Z,6.69
2018-12-30T10:47:05.232Z,6.69
2018-12-30T10:48:05.121Z,6.69
2018-12-30T10:49:05.303Z,6.69
2018-12-30T10:50:06.224Z,6.69
2018-12-30T10:51:05.166Z,6.69
2018-12-30T10:52:05.231Z,6.69
2018-12-30T10:53:05.484Z,6.69
2018-12-30T10:54:06.043Z,6.75
2018-12-30T10:55:05.390Z,6.69
2018-12-30T10:56:05.911Z,6.69
2018-12-30T10:57:05.150Z,6.75
2018-12-30T10:58:06.079Z,6.75
2018-12-30T10:59:05.399Z,6.75
2018-12-30T11:00:05.394Z,6.75
2018-12-30T11:01:05.783Z,6.75
2018-12-30T11:02:05.311Z,6.75
2018-12-30T11:03:05.366Z,6.75
2018-12-30T11:04:05.848Z,6.75
2018-12-30T11:05:05.990Z,6.75
2018-12-30T11:06:05.376Z,6.75
2018-12-30T11:07:05.312Z,6.81
2018-12-30T11:08:05.385Z,6.81
2018-12-30T11:09:05.656Z,6.81
2018-12-30T11:10:05.326Z,6.81
2018-12-30T11:11:05.310Z,6.81
2018-12-30T11:12:05.544Z,6.81
2018-12-30T11:13:05.530Z,6.81
2018-12-30T11:14:05.939Z,6.88
2018-12-30T11:15:05.851Z,6.88
2018-12-30T11:16:05.210Z,6.81
2018-12-30T11:17:05.294Z,6.88
2018-12-30T11:18:05.541Z,6.81
2018-12-30T11:19:05.876Z,6.81
2018-12-30T11:20:05.604Z,6.81
2018-12-30T11:21:05.035Z,6.88
2018-12-30T11:22:05.444Z,6.88
2018-12-30T11:23:05.458Z,6.88
2018-12-30T11:24:08.628Z,6.88
2018-12-30T11:25:05.515Z,6.81
2018-12-30T11:26:05.602Z,6.81
2018-12-30T11:27:05.808Z,6.88
2018-12-30T11:28:05.353Z,6.88
2018-12-30T11:29:05.595Z,6.81
2018-12-30T11:30:06.036Z,6.88
2018-12-30T11:31:05.408Z,6.88
2018-12-30T11:32:05.864Z,6.88
2018-12-30T11:33:05.972Z,6.88
2018-12-30T11:34:05.934Z,6.88
2018-12-30T11:35:05.713Z,6.88
2018-12-30T11:36:05.766Z,6.88
2018-12-30T11:37:06.050Z,6.88
2018-12-30T11:38:05.948Z,6.88
2018-12-30T11:39:05.163Z,6.88
2018-12-30T11:40:05.204Z,6.88
2018-12-30T11:41:05.702Z,6.88
2018-12-30T11:42:05.846Z,6.88
2018-12-30T11:43:05.566Z,6.88
2018-12-30T11:44:05.550Z,6.88
2018-12-30T11:45:05.714Z,6.88
2018-12-30T11:46:05.227Z,6.88
2018-12-30T11:47:05.252Z,6.88
2018-12-30T11:48:05.743Z,6.88
2018-12-30T11:49:06.135Z,6.88
2018-12-30T11:50:05.545Z,6.88
2018-12-30T11:51:05.533Z,6.88
2018-12-30T11:52:05.532Z,6.88
2018-12-30T11:53:05.974Z,6.94
2018-12-30T11:54:05.236Z,6.94
2018-12-30T11:55:06.043Z,6.88
2018-12-30T11:56:05.436Z,6.94
2018-12-30T11:57:05.151Z,6.94
2018-12-30T11:58:05.881Z,6.94
2018-12-30T11:59:05.207Z,6.94
2018-12-30T12:00:05.601Z,6.94
2018-12-30T12:01:05.306Z,6.94
2018-12-30T12:02:05.539Z,6.94
2018-12-30T12:03:05.637Z,6.94
2018-12-30T12:04:05.861Z,6.94
2018-12-30T12:05:05.941Z,6.94
2018-12-30T12:06:05.598Z,6.94
2018-12-30T12:08:05.141Z,6.94
2018-12-30T12:08:10.007Z,6.94
2018-12-30T12:09:05.304Z,6.94
2018-12-30T12:10:05.413Z,6.94
2018-12-30T12:11:05.445Z,6.94
2018-12-30T12:12:05.573Z,6.94
2018-12-30T12:13:05.687Z,6.94
2018-12-30T12:14:05.138Z,7.00
2018-12-30T12:15:06.780Z,6.94
2018-12-30T12:16:05.303Z,6.94
2018-12-30T12:17:06.201Z,6.94
2018-12-30T12:18:05.054Z,7.00
2018-12-30T12:19:05.840Z,7.00
2018-12-30T12:20:05.399Z,7.00
2018-12-30T12:21:05.537Z,7.00
2018-12-30T12:22:05.923Z,7.00
2018-12-30T12:23:05.234Z,7.00
2018-12-30T12:24:05.546Z,7.00
2018-12-30T12:25:06.004Z,7.00
2018-12-30T12:26:05.540Z,7.00
2018-12-30T12:27:05.868Z,7.00
2018-12-30T12:28:05.254Z,7.00
2018-12-30T12:29:05.202Z,7.00
2018-12-30T12:30:05.473Z,7.00
2018-12-30T12:31:05.757Z,7.00
2018-12-30T12:32:05.860Z,7.06
2018-12-30T12:33:06.011Z,7.00
2018-12-30T12:34:05.623Z,7.00
2018-12-30T12:35:05.122Z,7.00
2018-12-30T12:36:05.622Z,7.00
2018-12-30T12:37:05.125Z,7.06
2018-12-30T12:38:05.596Z,7.00
2018-12-30T12:39:05.945Z,7.06
2018-12-30T12:40:05.148Z,7.00
2018-12-30T12:41:05.613Z,7.00
2018-12-30T12:42:05.679Z,7.06
2018-12-30T12:43:05.051Z,7.06
2018-12-30T12:44:05.783Z,7.06
2018-12-30T12:45:05.541Z,7.12
2018-12-30T12:46:06.227Z,7.06
2018-12-30T12:47:05.935Z,7.06
2018-12-30T12:48:06.132Z,7.06
2018-12-30T12:49:05.122Z,7.06
2018-12-30T12:50:05.951Z,7.06
2018-12-30T12:51:05.287Z,7.06
2018-12-30T12:52:05.393Z,7.06
2018-12-30T12:53:05.041Z,7.06
2018-12-30T12:54:05.232Z,7.06
2018-12-30T12:55:05.273Z,7.06
2018-12-30T12:56:05.953Z,7.06
2018-12-30T12:57:05.531Z,7.06
2018-12-30T12:58:05.805Z,7.06
2018-12-30T12:59:05.757Z,7.06
2018-12-30T13:00:06.124Z,7.06
2018-12-30T13:01:05.220Z,7.06
2018-12-30T13:02:05.440Z,7.06
2018-12-30T13:03:05.619Z,7.06
2018-12-30T13:04:05.706Z,7.06
2018-12-30T13:05:05.758Z,7.06
2018-12-30T13:06:05.394Z,7.06
2018-12-30T13:07:05.430Z,7.06
2018-12-30T13:08:07.061Z,7.12
2018-12-30T13:09:05.874Z,7.12
2018-12-30T13:10:05.363Z,7.12
2018-12-30T13:11:05.711Z,7.12
2018-12-30T13:12:05.944Z,7.06
2018-12-30T13:13:05.042Z,7.06
2018-12-30T13:14:05.158Z,7.06
2018-12-30T13:15:05.508Z,7.06
2018-12-30T13:16:05.548Z,7.06
2018-12-30T13:17:06.023Z,7.06
2018-12-30T13:18:05.308Z,7.06
2018-12-30T13:19:06.028Z,7.06
2018-12-30T13:20:05.139Z,7.06
2018-12-30T13:21:05.776Z,7.06
2018-12-30T13:22:05.625Z,7.06
2018-12-30T13:23:05.034Z,7.06